createdAt,value
2022-09-28T00:03:39.136Z,20.36
2022-09-28T00:10:03.467Z,20.34
2022-09-28T00:16:27.828Z,20.31
2022-09-28T00:22:52.113Z,20.29
2022-09-28T00:29:16.550Z,20.26
2022-09-28T00:35:40.923Z,20.24
2022-09-28T00:42:07.719Z,20.22
2022-09-28T00:48:41.074Z,20.20
2022-09-28T00:55:05.308Z,20.17
2022-09-28T01:01:29.675Z,20.15
2022-09-28T01:07:54.549Z,20.13
2022-09-28T01:14:18.878Z,20.11
2022-09-28T01:20:48.938Z,20.09
2022-09-28T01:27:17.054Z,20.07
2022-09-28T01:33:36.451Z,20.05
2022-09-28T01:40:00.744Z,20.03
2022-09-28T01:46:24.959Z,20.01
2022-09-28T01:52:52.102Z,19.99
2022-09-28T01:59:22.481Z,19.96
2022-09-28T02:05:58.674Z,19.95
2022-09-28T02:12:22.949Z,19.93
2022-09-28T02:18:47.214Z,19.91
2022-09-28T02:25:23.796Z,19.90
2022-09-28T02:31:48.088Z,19.88
2022-09-28T02:38:12.433Z,19.86
2022-09-28T02:44:48.495Z,19.85
2022-09-28T02:51:15.868Z,19.83
2022-09-28T02:57:46.023Z,19.81
2022-09-28T03:04:26.773Z,19.80
2022-09-28T03:11:09.653Z,19.79
2022-09-28T03:17:33.855Z,19.77
2022-09-28T03:23:58.039Z,19.76
2022-09-28T03:30:22.375Z,19.74
2022-09-28T03:36:49.536Z,19.72
2022-09-28T03:43:13.972Z,19.71
2022-09-28T03:49:38.286Z,19.69
2022-09-28T03:56:02.485Z,19.68
2022-09-28T04:02:26.890Z,19.67
2022-09-28T04:08:51.447Z,19.65
2022-09-28T04:15:15.742Z,19.64
2022-09-28T04:21:40.046Z,19.63
2022-09-28T04:28:05.286Z,19.63
2022-09-28T04:34:34.531Z,19.66
2022-09-28T04:40:52.550Z,19.78
2022-09-28T04:47:16.885Z,19.97
2022-09-28T04:53:56.409Z,20.22
2022-09-28T05:00:20.689Z,20.47
2022-09-28T05:06:45.172Z,20.71
2022-09-28T05:13:09.560Z,20.92
2022-09-28T05:19:36.503Z,21.11
2022-09-28T05:26:01.197Z,21.29
2022-09-28T05:32:25.485Z,21.44
2022-09-28T05:38:48.694Z,21.58
2022-09-28T05:45:13.073Z,21.69
2022-09-28T05:51:37.387Z,21.76
2022-09-28T05:58:01.694Z,21.80
2022-09-28T06:04:25.888Z,21.82
2022-09-28T06:10:50.212Z,21.82
2022-09-28T06:17:17.299Z,21.79
2022-09-28T06:23:45.611Z,21.76
2022-09-28T06:30:12.662Z,21.73
2022-09-28T06:36:37.147Z,21.69
2022-09-28T06:43:01.654Z,21.67
2022-09-28T06:49:24.499Z,21.65
2022-09-28T06:56:06.966Z,21.63
2022-09-28T07:02:31.300Z,21.58
2022-09-28T07:09:29.221Z,21.54
2022-09-28T07:16:04.386Z,21.49
2022-09-28T07:22:40.369Z,21.45
2022-09-28T07:29:07.384Z,21.42
2022-09-28T07:35:34.858Z,21.38
2022-09-28T07:42:03.059Z,21.33
2022-09-28T07:48:27.524Z,21.30
2022-09-28T07:54:54.534Z,21.27
2022-09-28T08:01:21.800Z,21.24
2022-09-28T08:07:48.850Z,21.21
2022-09-28T08:14:13.114Z,21.18
2022-09-28T08:20:50.794Z,21.15
2022-09-28T08:27:15.971Z,21.12
2022-09-28T08:33:39.167Z,21.11
2022-09-28T08:40:15.716Z,21.09
2022-09-28T08:46:40.063Z,21.06
2022-09-28T08:53:13.281Z,21.04
2022-09-28T08:59:52.340Z,21.01
2022-09-28T09:06:18.728Z,21.00
2022-09-28T09:12:46.145Z,20.96
2022-09-28T09:19:19.449Z,20.94
2022-09-28T09:25:49.332Z,20.93
2022-09-28T09:32:22.391Z,20.90
2022-09-28T09:38:48.005Z,20.88
2022-09-28T09:45:25.734Z,20.87
2022-09-28T09:51:58.948Z,20.85
2022-09-28T09:58:19.682Z,20.83
2022-09-28T10:04:44.017Z,20.80
2022-09-28T10:11:13.941Z,20.77
2022-09-28T10:17:38.496Z,20.74
2022-09-28T10:24:01.226Z,20.70
2022-09-28T10:30:25.547Z,20.67
2022-09-28T10:36:49.822Z,20.65
2022-09-28T10:43:14.162Z,20.65
2022-09-28T10:49:53.436Z,20.65
2022-09-28T10:56:23.662Z,20.73
2022-09-28T11:02:47.994Z,20.85
2022-09-28T11:09:12.351Z,20.95
2022-09-28T11:15:36.822Z,21.08
2022-09-28T11:22:22.213Z,21.30
2022-09-28T11:28:52.792Z,21.54
2022-09-28T11:35:26.415Z,21.75
2022-09-28T11:41:53.866Z,21.92
2022-09-28T11:48:27.513Z,22.08
2022-09-28T11:54:51.824Z,22.17
2022-09-28T12:01:19.279Z,22.18
2022-09-28T12:07:44.514Z,22.17
2022-09-28T12:14:04.662Z,22.17
2022-09-28T12:20:28.558Z,22.15
2022-09-28T12:27:04.669Z,22.20
2022-09-28T12:33:53.074Z,22.72
2022-09-28T12:40:23.143Z,23.69
2022-09-28T12:47:02.520Z,24.56
2022-09-28T12:53:44.258Z,25.49
2022-09-28T13:00:11.334Z,25.30
2022-09-28T13:06:49.769Z,24.64
2022-09-28T13:13:29.482Z,24.13
2022-09-28T13:19:59.595Z,23.62
2022-09-28T13:26:23.919Z,23.41
2022-09-28T13:32:48.186Z,23.75
2022-09-28T13:39:24.263Z,23.93
2022-09-28T13:45:50.825Z,23.95
2022-09-28T13:52:30.189Z,23.90
2022-09-28T13:58:57.290Z,23.72
2022-09-28T14:05:33.608Z,23.61
2022-09-28T14:12:13.078Z,23.60
2022-09-28T14:19:01.673Z,23.52
2022-09-28T14:25:28.516Z,23.45
2022-09-28T14:31:56.026Z,23.42
2022-09-28T14:38:18.992Z,23.30
2022-09-28T14:44:52.103Z,23.11
2022-09-28T14:51:19.166Z,22.90
2022-09-28T14:57:46.472Z,22.72
2022-09-28T15:04:10.879Z,22.55
2022-09-28T15:10:35.576Z,22.39
2022-09-28T15:16:59.925Z,22.26
2022-09-28T15:23:20.033Z,22.13
2022-09-28T15:29:44.421Z,22.01
2022-09-28T15:36:14.604Z,21.64
2022-09-28T15:42:39.105Z,20.86
2022-09-28T15:49:38.182Z,20.78
2022-09-28T15:56:06.118Z,20.88
2022-09-28T16:02:30.504Z,20.97
2022-09-28T16:09:00.767Z,21.04
2022-09-28T16:15:25.067Z,21.09
2022-09-28T16:21:49.383Z,21.13
2022-09-28T16:28:33.638Z,21.15
2022-09-28T16:35:01.862Z,21.16
2022-09-28T16:41:26.129Z,21.15
2022-09-28T16:47:50.391Z,21.15
2022-09-28T16:54:15.637Z,21.15
2022-09-28T17:00:39.946Z,21.13
2022-09-28T17:07:04.472Z,21.11
2022-09-28T17:13:28.739Z,21.09
2022-09-28T17:19:58.655Z,21.07
2022-09-28T17:26:23.425Z,21.04
2022-09-28T17:32:47.648Z,21.03
2022-09-28T17:39:11.945Z,21.01
2022-09-28T17:45:36.269Z,21.00
2022-09-28T17:51:53.266Z,20.98
2022-09-28T17:58:17.505Z,20.96
2022-09-28T18:04:51.747Z,20.94
2022-09-28T18:11:16.891Z,20.92
2022-09-28T18:17:41.488Z,20.91
2022-09-28T18:24:05.718Z,20.89
2022-09-28T18:30:30.090Z,20.88
2022-09-28T18:36:54.263Z,20.86
2022-09-28T18:43:18.532Z,20.84
2022-09-28T18:49:46.545Z,20.83
2022-09-28T18:56:11.303Z,20.82
2022-09-28T19:02:35.699Z,20.80
2022-09-28T19:09:00.205Z,20.79
2022-09-28T19:15:24.587Z,20.78
2022-09-28T19:21:48.800Z,20.77
2022-09-28T19:28:13.538Z,20.76
2022-09-28T19:34:37.818Z,20.74
2022-09-28T19:41:02.216Z,20.74
2022-09-28T19:47:29.638Z,20.72
2022-09-28T19:53:53.926Z,20.71
2022-09-28T20:00:18.271Z,20.70
2022-09-28T20:06:42.567Z,20.69
2022-09-28T20:13:06.876Z,20.67
2022-09-28T20:19:31.160Z,20.66
2022-09-28T20:25:55.374Z,20.65
2022-09-28T20:32:19.601Z,20.63
2022-09-28T20:38:43.996Z,20.61
2022-09-28T20:45:08.186Z,20.59
2022-09-28T20:51:41.245Z,20.57
2022-09-28T20:58:05.527Z,20.57
2022-09-28T21:04:28.833Z,20.55
2022-09-28T21:10:53.144Z,20.52
2022-09-28T21:17:17.459Z,20.47
2022-09-28T21:23:41.719Z,20.39
2022-09-28T21:30:06.066Z,20.33
2022-09-28T21:36:30.277Z,20.26
2022-09-28T21:42:54.705Z,20.21
2022-09-28T21:49:18.950Z,20.17
2022-09-28T21:55:43.240Z,20.12
2022-09-28T22:02:07.775Z,20.08
2022-09-28T22:08:32.154Z,20.04
2022-09-28T22:14:56.465Z,20.00
2022-09-28T22:21:20.611Z,19.97
2022-09-28T22:27:44.982Z,19.94
2022-09-28T22:34:09.264Z,19.91
2022-09-28T22:40:33.601Z,19.89
2022-09-28T22:47:07.153Z,19.86
2022-09-28T22:53:22.922Z,19.83
2022-09-28T22:59:47.167Z,19.81
2022-09-28T23:06:11.564Z,19.79
2022-09-28T23:12:35.850Z,19.77
2022-09-28T23:19:02.978Z,19.75
2022-09-28T23:25:27.278Z,19.72
2022-09-28T23:31:54.744Z,19.71
2022-09-28T23:38:19.066Z,19.69
2022-09-28T23:44:45.645Z,19.68
2022-09-28T23:51:10.232Z,19.65
2022-09-28T23:57:34.542Z,19.64
